KNBG/NBG METAR and TAF weather

Enter ICAO airport designator
Station Type Date Time Source
KNBG METAR 2020/07/06 22:03 UTC NOAA

KNBG 062203Z 30011G19KT 2SM RA BR BKN021 BKN042 BKN075 25/23 A2997 RMK AO2 RAB03 T1 SET P0002 T02500228 $


Station Type Date Time Source
KNBG Decoded METAR 2020/07/06 22:03 UTC NOAA

NEW ORLEANS NAVAL AIR STN, LA, United States (KNBG) 29-50N 90-01W
Jul 06, 2020 - 06:03 PM EDT / 2020.07.06 2203 UTC
Wind: from the WNW (300 degrees) at 13 MPH (11 KT) gusting to 22 MPH (19 KT):0
Visibility: 2 mile(s):0
Sky conditions: mostly cloudy
Weather: rain; mist
Precipitation last hour: 0.02 inches
Temperature: 77.0 F (25.0 C)
Dew Point: 73.0 F (22.8 C)
Relative Humidity: 87%
Pressure (altimeter): 29.97 in. Hg (1014 hPa)
ob: KNBG 062203Z 30011G19KT 2SM RA BR BKN021 BKN042 BKN075 25/23 A2997 RMK AO2 RAB03 T1 SET P0002 T02500228
cycle: 22

Station Type Date Time Source
KNBG TAF 2020/07/06 15:35 UTC NOAA

TAF KNBG 0615/0715 24006KT 9000 -RA BR VCTS SCT013CB BKN030 BKN120 OVC250 QNH2990INS
TEMPO 0615/0621 VRB25G35KT 1200 +TSRA BR SCT010 BKN015CB OVC035
TEMPO 0621/0702 VRB25G35KT 0800 +TSRA FG BKN005 OVC015CB
BECMG 0702/0704 VRB03KT 4800 BR VCTS SCT015CB BKN025 OVC110 QNH2993INS
TEMPO 0709/0715 VRB20G30KT 3200 TSRA BR BKN013CB OVC060 T28/0620Z T24/0712Z FN20039

Example: see airport list